Saint Clair, Missouri
Current Conditions -  °F | °C
As of 11:35 PM on Wednesday 26 Nov 2014 (Local Time) from KFYG Reporting Station
Broken Clouds Broken Clouds  
Wind Chill: 25°   Ceiling: 1100
Heat Index: 34°   Visibility: 10mi
Dew Point: 32°   Wind: 12mph
Humidity: 93%   Direction: 330°NNW
Pressure: 30.22"   Gusts: NA
Location:  38.35°N, 90.98°W
Report Text: KFYG 270535Z AUTO 33010KT 10SM BKN011 BKN014 01/00 A3022 RMK AO2
Loading
Personal Weather Stations






























Interactive Weather Map New forecast layout! Learn more

10-Day Weather Forecast

Advertisements
Track Severe Weather on mobile